Adjuntas, Puerto Rico
Current Conditions -  °F | °C
As of 8:50 AM on Friday 31 Oct 2014 (Local Time) from TJBQ Reporting Station
Clear Clear  
Wind Chill: 81°   Ceiling: Unl
Heat Index: 86°   Visibility: 10mi
Dew Point: 75°   Wind: 0mph
Humidity: 84%   Direction: NA
Pressure: 29.9"   Gusts: NA
Location:  18.16°N, 66.72°W
Report Text: TJBQ 311250Z 00000KT 10SM SKC 27/24 A2990 RMK RWY 8 - ATIS M
Loading
Personal Weather Stations






























Interactive Weather Map New forecast layout! Learn more

10-Day Weather Forecast

Advertisements
Track Severe Weather on mobile